sensor_id;sensor_type;location;lat;lon;timestamp;pressure;altitude;pressure_sealevel;temperature
14784;BMP180;7483;50.498;12.138;2022-11-04T00:02:08;96007.00;;;10.30
14784;BMP180;7483;50.498;12.138;2022-11-04T00:04:36;95997.00;;;10.10
14784;BMP180;7483;50.498;12.138;2022-11-04T00:07:05;96003.00;;;10.00
14784;BMP180;7483;50.498;12.138;2022-11-04T00:09:53;96003.00;;;10.10
14784;BMP180;7483;50.498;12.138;2022-11-04T00:12:21;95986.00;;;10.00
14784;BMP180;7483;50.498;12.138;2022-11-04T00:14:51;95993.00;;;10.00
14784;BMP180;7483;50.498;12.138;2022-11-04T00:17:20;96013.00;;;10.10
14784;BMP180;7483;50.498;12.138;2022-11-04T00:19:52;96000.00;;;10.00
14784;BMP180;7483;50.498;12.138;2022-11-04T00:22:40;96052.00;;;9.90
14784;BMP180;7483;50.498;12.138;2022-11-04T00:25:26;96057.00;;;9.90
14784;BMP180;7483;50.498;12.138;2022-11-04T00:28:15;96060.00;;;9.90
14784;BMP180;7483;50.498;12.138;2022-11-04T00:31:03;96055.00;;;9.90
14784;BMP180;7483;50.498;12.138;2022-11-04T00:33:45;96038.00;;;9.90
14784;BMP180;7483;50.498;12.138;2022-11-04T00:36:15;96063.00;;;9.90
14784;BMP180;7483;50.498;12.138;2022-11-04T00:38:45;96072.00;;;9.90
14784;BMP180;7483;50.498;12.138;2022-11-04T00:41:13;96085.00;;;9.90
14784;BMP180;7483;50.498;12.138;2022-11-04T00:43:56;96071.00;;;9.90
14784;BMP180;7483;50.498;12.138;2022-11-04T00:46:25;96081.00;;;9.90
14784;BMP180;7483;50.498;12.138;2022-11-04T00:48:53;96083.00;;;9.90
14784;BMP180;7483;50.498;12.138;2022-11-04T00:51:22;96089.00;;;9.90
14784;BMP180;7483;50.498;12.138;2022-11-04T00:53:52;96095.00;;;9.90
14784;BMP180;7483;50.498;12.138;2022-11-04T00:56:20;96090.00;;;9.90
14784;BMP180;7483;50.498;12.138;2022-11-04T00:58:49;96102.00;;;9.90
14784;BMP180;7483;50.498;12.138;2022-11-04T01:01:18;96112.00;;;10.00
14784;BMP180;7483;50.498;12.138;2022-11-04T01:03:48;96115.00;;;10.00
14784;BMP180;7483;50.498;12.138;2022-11-04T01:06:19;96120.00;;;10.10
14784;BMP180;7483;50.498;12.138;2022-11-04T01:08:48;96100.00;;;10.10
14784;BMP180;7483;50.498;12.138;2022-11-04T01:11:18;96096.00;;;10.00
14784;BMP180;7483;50.498;12.138;2022-11-04T01:13:48;96107.00;;;10.10
14784;BMP180;7483;50.498;12.138;2022-11-04T01:16:17;96106.00;;;10.10
14784;BMP180;7483;50.498;12.138;2022-11-04T01:18:45;96110.00;;;10.10
14784;BMP180;7483;50.498;12.138;2022-11-04T01:21:15;96113.00;;;10.20
14784;BMP180;7483;50.498;12.138;2022-11-04T01:23:44;96098.00;;;10.20
14784;BMP180;7483;50.498;12.138;2022-11-04T01:26:14;96108.00;;;10.20
14784;BMP180;7483;50.498;12.138;2022-11-04T01:28:45;96089.00;;;10.20
14784;BMP180;7483;50.498;12.138;2022-11-04T01:31:15;96092.00;;;10.30
14784;BMP180;7483;50.498;12.138;2022-11-04T01:33:44;96089.00;;;10.30
14784;BMP180;7483;50.498;12.138;2022-11-04T01:36:13;96092.00;;;10.30
14784;BMP180;7483;50.498;12.138;2022-11-04T01:38:41;96086.00;;;10.40
14784;BMP180;7483;50.498;12.138;2022-11-04T01:41:17;96093.00;;;10.40
14784;BMP180;7483;50.498;12.138;2022-11-04T01:43:52;96081.00;;;10.50
14784;BMP180;7483;50.498;12.138;2022-11-04T01:46:34;96075.00;;;10.50
14784;BMP180;7483;50.498;12.138;2022-11-04T01:49:22;96056.00;;;10.50
14784;BMP180;7483;50.498;12.138;2022-11-04T01:51:58;96079.00;;;10.50
14784;BMP180;7483;50.498;12.138;2022-11-04T01:54:29;96073.00;;;10.50
14784;BMP180;7483;50.498;12.138;2022-11-04T01:57:01;96076.00;;;10.40
14784;BMP180;7483;50.498;12.138;2022-11-04T01:59:37;96073.00;;;10.50
14784;BMP180;7483;50.498;12.138;2022-11-04T02:02:06;96071.00;;;10.50
14784;BMP180;7483;50.498;12.138;2022-11-04T02:04:37;96075.00;;;10.50
14784;BMP180;7483;50.498;12.138;2022-11-04T02:07:09;96086.00;;;10.50
14784;BMP180;7483;50.498;12.138;2022-11-04T02:09:39;96074.00;;;10.50
14784;BMP180;7483;50.498;12.138;2022-11-04T02:12:08;96071.00;;;10.50
14784;BMP180;7483;50.498;12.138;2022-11-04T02:14:56;96077.00;;;10.50
14784;BMP180;7483;50.498;12.138;2022-11-04T02:17:38;96074.00;;;10.40
14784;BMP180;7483;50.498;12.138;2022-11-04T02:20:49;96077.00;;;10.50
14784;BMP180;7483;50.498;12.138;2022-11-04T02:27:24;96062.00;;;10.40
14784;BMP180;7483;50.498;12.138;2022-11-04T02:30:04;96067.00;;;10.40
14784;BMP180;7483;50.498;12.138;2022-11-04T02:32:51;96075.00;;;10.30
14784;BMP180;7483;50.498;12.138;2022-11-04T02:35:30;96069.00;;;10.40
14784;BMP180;7483;50.498;12.138;2022-11-04T02:38:13;96067.00;;;10.40
14784;BMP180;7483;50.498;12.138;2022-11-04T02:40:55;96047.00;;;10.50
14784;BMP180;7483;50.498;12.138;2022-11-04T02:43:35;96061.00;;;10.40
14784;BMP180;7483;50.498;12.138;2022-11-04T02:46:16;96049.00;;;10.40
14784;BMP180;7483;50.498;12.138;2022-11-04T02:48:48;96047.00;;;10.40
14784;BMP180;7483;50.498;12.138;2022-11-04T02:51:26;96050.00;;;10.40
14784;BMP180;7483;50.498;12.138;2022-11-04T02:54:04;96051.00;;;10.40
14784;BMP180;7483;50.498;12.138;2022-11-04T02:56:38;96057.00;;;10.40
14784;BMP180;7483;50.498;12.138;2022-11-04T02:59:15;96053.00;;;10.30
14784;BMP180;7483;50.498;12.138;2022-11-04T03:01:48;96049.00;;;10.30
14784;BMP180;7483;50.498;12.138;2022-11-04T03:04:24;96064.00;;;10.30
14784;BMP180;7483;50.498;12.138;2022-11-04T03:06:55;96069.00;;;10.30
14784;BMP180;7483;50.498;12.138;2022-11-04T03:09:27;96074.00;;;10.30
14784;BMP180;7483;50.498;12.138;2022-11-04T03:12:03;96065.00;;;10.30
14784;BMP180;7483;50.498;12.138;2022-11-04T03:14:38;96068.00;;;10.30
14784;BMP180;7483;50.498;12.138;2022-11-04T03:17:18;96073.00;;;10.30
14784;BMP180;7483;50.498;12.138;2022-11-04T03:19:55;96095.00;;;10.30
14784;BMP180;7483;50.498;12.138;2022-11-04T03:22:27;96089.00;;;10.30
14784;BMP180;7483;50.498;12.138;2022-11-04T03:24:56;96107.00;;;10.30
14784;BMP180;7483;50.498;12.138;2022-11-04T03:27:34;96105.00;;;10.30
14784;BMP180;7483;50.498;12.138;2022-11-04T03:30:08;96106.00;;;10.30
14784;BMP180;7483;50.498;12.138;2022-11-04T03:32:44;96105.00;;;10.30
14784;BMP180;7483;50.498;12.138;2022-11-04T03:35:16;96118.00;;;10.30
14784;BMP180;7483;50.498;12.138;2022-11-04T03:37:47;96120.00;;;10.30
14784;BMP180;7483;50.498;12.138;2022-11-04T03:40:17;96118.00;;;10.30
14784;BMP180;7483;50.498;12.138;2022-11-04T03:42:52;96137.00;;;10.30
14784;BMP180;7483;50.498;12.138;2022-11-04T03:45:23;96140.00;;;10.30
14784;BMP180;7483;50.498;12.138;2022-11-04T03:47:54;96131.00;;;10.20
14784;BMP180;7483;50.498;12.138;2022-11-04T03:50:28;96140.00;;;10.30
14784;BMP180;7483;50.498;12.138;2022-11-04T03:52:57;96143.00;;;10.30
14784;BMP180;7483;50.498;12.138;2022-11-04T03:55:38;96140.00;;;10.30
14784;BMP180;7483;50.498;12.138;2022-11-04T03:58:25;96144.00;;;10.30
14784;BMP180;7483;50.498;12.138;2022-11-04T04:01:07;96143.00;;;10.30
14784;BMP180;7483;50.498;12.138;2022-11-04T04:03:47;96150.00;;;10.30
14784;BMP180;7483;50.498;12.138;2022-11-04T04:06:25;96158.00;;;10.30
14784;BMP180;7483;50.498;12.138;2022-11-04T04:08:59;96160.00;;;10.30
14784;BMP180;7483;50.498;12.138;2022-11-04T04:11:39;96133.00;;;10.30
14784;BMP180;7483;50.498;12.138;2022-11-04T04:14:17;96166.00;;;10.30
14784;BMP180;7483;50.498;12.138;2022-11-04T04:17:07;96172.00;;;10.30
14784;BMP180;7483;50.498;12.138;2022-11-04T04:19:47;96167.00;;;10.40
14784;BMP180;7483;50.498;12.138;2022-11-04T04:22:22;96164.00;;;10.40
14784;BMP180;7483;50.498;12.138;2022-11-04T04:24:55;96160.00;;;10.40
14784;BMP180;7483;50.498;12.138;2022-11-04T04:27:44;96163.00;;;10.40
14784;BMP180;7483;50.498;12.138;2022-11-04T04:30:15;96162.00;;;10.30
14784;BMP180;7483;50.498;12.138;2022-11-04T04:32:47;96162.00;;;10.30
14784;BMP180;7483;50.498;12.138;2022-11-04T04:35:23;96154.00;;;10.30
14784;BMP180;7483;50.498;12.138;2022-11-04T04:38:18;96128.00;;;10.30
14784;BMP180;7483;50.498;12.138;2022-11-04T04:41:12;96164.00;;;10.40
14784;BMP180;7483;50.498;12.138;2022-11-04T04:44:00;96167.00;;;10.30
14784;BMP180;7483;50.498;12.138;2022-11-04T04:46:48;96162.00;;;10.40
14784;BMP180;7483;50.498;12.138;2022-11-04T04:49:18;96161.00;;;10.40
14784;BMP180;7483;50.498;12.138;2022-11-04T04:51:51;96168.00;;;10.40
14784;BMP180;7483;50.498;12.138;2022-11-04T04:54:19;96161.00;;;10.20
14784;BMP180;7483;50.498;12.138;2022-11-04T04:56:47;96173.00;;;10.30
14784;BMP180;7483;50.498;12.138;2022-11-04T04:59:15;96171.00;;;10.20
14784;BMP180;7483;50.498;12.138;2022-11-04T05:01:43;96164.00;;;10.30
14784;BMP180;7483;50.498;12.138;2022-11-04T05:04:12;96161.00;;;10.30
14784;BMP180;7483;50.498;12.138;2022-11-04T05:06:40;96174.00;;;10.30
14784;BMP180;7483;50.498;12.138;2022-11-04T05:09:09;96177.00;;;10.30
14784;BMP180;7483;50.498;12.138;2022-11-04T05:11:37;96165.00;;;10.30
14784;BMP180;7483;50.498;12.138;2022-11-04T05:14:05;96178.00;;;10.30
14784;BMP180;7483;50.498;12.138;2022-11-04T05:16:33;96171.00;;;10.30
14784;BMP180;7483;50.498;12.138;2022-11-04T05:19:07;96177.00;;;10.30
14784;BMP180;7483;50.498;12.138;2022-11-04T05:21:35;96169.00;;;10.40
14784;BMP180;7483;50.498;12.138;2022-11-04T05:24:03;96175.00;;;10.40
14784;BMP180;7483;50.498;12.138;2022-11-04T05:26:34;96170.00;;;10.40
14784;BMP180;7483;50.498;12.138;2022-11-04T05:29:02;96170.00;;;10.40
14784;BMP180;7483;50.498;12.138;2022-11-04T05:31:31;96164.00;;;10.30
14784;BMP180;7483;50.498;12.138;2022-11-04T05:33:59;96167.00;;;10.30
14784;BMP180;7483;50.498;12.138;2022-11-04T05:36:27;96148.00;;;10.30
14784;BMP180;7483;50.498;12.138;2022-11-04T05:38:55;96149.00;;;10.30
14784;BMP180;7483;50.498;12.138;2022-11-04T05:41:24;96151.00;;;10.30
14784;BMP180;7483;50.498;12.138;2022-11-04T05:43:58;96141.00;;;10.30
14784;BMP180;7483;50.498;12.138;2022-11-04T05:46:27;96154.00;;;10.30
14784;BMP180;7483;50.498;12.138;2022-11-04T05:48:56;96148.00;;;10.30
14784;BMP180;7483;50.498;12.138;2022-11-04T05:51:26;96146.00;;;10.30
14784;BMP180;7483;50.498;12.138;2022-11-04T05:53:55;96149.00;;;10.20
14784;BMP180;7483;50.498;12.138;2022-11-04T05:56:23;96153.00;;;10.20
14784;BMP180;7483;50.498;12.138;2022-11-04T05:58:51;96149.00;;;10.20
14784;BMP180;7483;50.498;12.138;2022-11-04T06:01:29;96156.00;;;10.30
14784;BMP180;7483;50.498;12.138;2022-11-04T06:03:59;96150.00;;;10.20
14784;BMP180;7483;50.498;12.138;2022-11-04T06:06:31;96159.00;;;10.20
14784;BMP180;7483;50.498;12.138;2022-11-04T06:09:00;96159.00;;;10.30
14784;BMP180;7483;50.498;12.138;2022-11-04T06:11:31;96154.00;;;10.30
14784;BMP180;7483;50.498;12.138;2022-11-04T06:14:00;96148.00;;;10.20
14784;BMP180;7483;50.498;12.138;2022-11-04T06:16:30;96138.00;;;10.20
14784;BMP180;7483;50.498;12.138;2022-11-04T06:18:58;96140.00;;;10.10
14784;BMP180;7483;50.498;12.138;2022-11-04T06:21:35;96162.00;;;10.20
14784;BMP180;7483;50.498;12.138;2022-11-04T06:24:04;96170.00;;;10.20
14784;BMP180;7483;50.498;12.138;2022-11-04T06:26:32;96164.00;;;10.10
14784;BMP180;7483;50.498;12.138;2022-11-04T06:29:00;96161.00;;;10.10
14784;BMP180;7483;50.498;12.138;2022-11-04T06:31:30;96150.00;;;10.10
14784;BMP180;7483;50.498;12.138;2022-11-04T06:33:58;96150.00;;;10.10
14784;BMP180;7483;50.498;12.138;2022-11-04T06:36:26;96145.00;;;10.10
14784;BMP180;7483;50.498;12.138;2022-11-04T06:38:54;96145.00;;;10.10
14784;BMP180;7483;50.498;12.138;2022-11-04T06:41:30;96163.00;;;10.00
14784;BMP180;7483;50.498;12.138;2022-11-04T06:43:58;96178.00;;;10.10
14784;BMP180;7483;50.498;12.138;2022-11-04T06:46:32;96161.00;;;10.10
14784;BMP180;7483;50.498;12.138;2022-11-04T06:49:02;96146.00;;;10.00
14784;BMP180;7483;50.498;12.138;2022-11-04T06:51:32;96158.00;;;10.10
14784;BMP180;7483;50.498;12.138;2022-11-04T06:54:00;96158.00;;;10.00
14784;BMP180;7483;50.498;12.138;2022-11-04T06:56:28;96176.00;;;10.00
14784;BMP180;7483;50.498;12.138;2022-11-04T06:58:57;96186.00;;;10.00
14784;BMP180;7483;50.498;12.138;2022-11-04T07:01:30;96182.00;;;10.00
14784;BMP180;7483;50.498;12.138;2022-11-04T07:04:00;96188.00;;;10.00
14784;BMP180;7483;50.498;12.138;2022-11-04T07:06:29;96195.00;;;10.00
14784;BMP180;7483;50.498;12.138;2022-11-04T07:09:00;96185.00;;;10.00
14784;BMP180;7483;50.498;12.138;2022-11-04T07:11:31;96183.00;;;10.00
14784;BMP180;7483;50.498;12.138;2022-11-04T07:13:59;96200.00;;;10.10
14784;BMP180;7483;50.498;12.138;2022-11-04T07:16:28;96205.00;;;10.10
14784;BMP180;7483;50.498;12.138;2022-11-04T07:18:56;96201.00;;;10.00
14784;BMP180;7483;50.498;12.138;2022-11-04T07:21:26;96212.00;;;10.00
14784;BMP180;7483;50.498;12.138;2022-11-04T07:23:54;96212.00;;;10.00
14784;BMP180;7483;50.498;12.138;2022-11-04T07:26:22;96215.00;;;10.00
14784;BMP180;7483;50.498;12.138;2022-11-04T07:28:51;96219.00;;;10.00
14784;BMP180;7483;50.498;12.138;2022-11-04T07:31:19;96219.00;;;10.00
14784;BMP180;7483;50.498;12.138;2022-11-04T07:33:48;96230.00;;;10.00
14784;BMP180;7483;50.498;12.138;2022-11-04T07:36:18;96240.00;;;10.00
14784;BMP180;7483;50.498;12.138;2022-11-04T07:38:48;96212.00;;;10.10
14784;BMP180;7483;50.498;12.138;2022-11-04T07:41:17;96256.00;;;10.10
14784;BMP180;7483;50.498;12.138;2022-11-04T07:43:49;96251.00;;;10.00
14784;BMP180;7483;50.498;12.138;2022-11-04T07:46:19;96265.00;;;9.90
14784;BMP180;7483;50.498;12.138;2022-11-04T07:48:47;96260.00;;;9.80
14784;BMP180;7483;50.498;12.138;2022-11-04T07:51:19;96253.00;;;9.80
14784;BMP180;7483;50.498;12.138;2022-11-04T07:53:49;96254.00;;;9.80
14784;BMP180;7483;50.498;12.138;2022-11-04T07:56:17;96261.00;;;9.80
14784;BMP180;7483;50.498;12.138;2022-11-04T07:58:45;96232.00;;;9.70
14784;BMP180;7483;50.498;12.138;2022-11-04T08:01:17;96231.00;;;9.70
14784;BMP180;7483;50.498;12.138;2022-11-04T08:03:45;96237.00;;;9.60
14784;BMP180;7483;50.498;12.138;2022-11-04T08:06:19;96252.00;;;9.80
14784;BMP180;7483;50.498;12.138;2022-11-04T08:08:49;96251.00;;;9.90
14784;BMP180;7483;50.498;12.138;2022-11-04T08:11:22;96248.00;;;9.80
14784;BMP180;7483;50.498;12.138;2022-11-04T08:13:54;96240.00;;;9.80
14784;BMP180;7483;50.498;12.138;2022-11-04T08:16:24;96186.00;;;9.80
14784;BMP180;7483;50.498;12.138;2022-11-04T08:19:00;96212.00;;;9.90
14784;BMP180;7483;50.498;12.138;2022-11-04T08:21:30;96222.00;;;9.90
14784;BMP180;7483;50.498;12.138;2022-11-04T08:24:00;96216.00;;;9.80
14784;BMP180;7483;50.498;12.138;2022-11-04T08:26:31;96200.00;;;9.70
14784;BMP180;7483;50.498;12.138;2022-11-04T08:28:59;96187.00;;;9.80
14784;BMP180;7483;50.498;12.138;2022-11-04T08:31:30;96148.00;;;9.70
14784;BMP180;7483;50.498;12.138;2022-11-04T08:33:59;96170.00;;;9.80
14784;BMP180;7483;50.498;12.138;2022-11-04T08:36:32;96149.00;;;9.80
14784;BMP180;7483;50.498;12.138;2022-11-04T08:39:04;96180.00;;;9.80
14784;BMP180;7483;50.498;12.138;2022-11-04T08:41:40;96167.00;;;9.70
14784;BMP180;7483;50.498;12.138;2022-11-04T08:44:11;96182.00;;;9.60
14784;BMP180;7483;50.498;12.138;2022-11-04T08:46:43;96180.00;;;9.60
14784;BMP180;7483;50.498;12.138;2022-11-04T08:49:12;96191.00;;;9.60
14784;BMP180;7483;50.498;12.138;2022-11-04T08:51:46;96203.00;;;9.50
14784;BMP180;7483;50.498;12.138;2022-11-04T08:54:24;96195.00;;;9.50
14784;BMP180;7483;50.498;12.138;2022-11-04T08:56:52;96203.00;;;9.50
14784;BMP180;7483;50.498;12.138;2022-11-04T08:59:21;96205.00;;;9.50
14784;BMP180;7483;50.498;12.138;2022-11-04T09:01:51;96172.00;;;9.50
14784;BMP180;7483;50.498;12.138;2022-11-04T09:04:19;96208.00;;;9.50
14784;BMP180;7483;50.498;12.138;2022-11-04T09:06:48;96198.00;;;9.50
14784;BMP180;7483;50.498;12.138;2022-11-04T09:09:17;96153.00;;;9.60
14784;BMP180;7483;50.498;12.138;2022-11-04T09:11:47;96215.00;;;9.60
14784;BMP180;7483;50.498;12.138;2022-11-04T09:14:16;96214.00;;;9.70
14784;BMP180;7483;50.498;12.138;2022-11-04T09:16:46;96217.00;;;9.70
14784;BMP180;7483;50.498;12.138;2022-11-04T09:19:14;96231.00;;;9.60
14784;BMP180;7483;50.498;12.138;2022-11-04T09:21:42;96251.00;;;9.60
14784;BMP180;7483;50.498;12.138;2022-11-04T09:24:11;96247.00;;;9.60
14784;BMP180;7483;50.498;12.138;2022-11-04T09:26:39;96246.00;;;9.60
14784;BMP180;7483;50.498;12.138;2022-11-04T09:29:09;96252.00;;;9.60
14784;BMP180;7483;50.498;12.138;2022-11-04T09:31:38;96261.00;;;9.60
14784;BMP180;7483;50.498;12.138;2022-11-04T09:34:07;96260.00;;;9.60
14784;BMP180;7483;50.498;12.138;2022-11-04T09:36:35;96261.00;;;9.60
14784;BMP180;7483;50.498;12.138;2022-11-04T09:39:04;96252.00;;;9.60
14784;BMP180;7483;50.498;12.138;2022-11-04T09:42:23;96255.00;;;9.60
14784;BMP180;7483;50.498;12.138;2022-11-04T09:44:57;96259.00;;;9.60
14784;BMP180;7483;50.498;12.138;2022-11-04T09:47:52;96248.00;;;9.60
14784;BMP180;7483;50.498;12.138;2022-11-04T09:50:26;96248.00;;;9.60
14784;BMP180;7483;50.498;12.138;2022-11-04T09:53:02;96255.00;;;9.60
14784;BMP180;7483;50.498;12.138;2022-11-04T09:55:40;96253.00;;;9.70
14784;BMP180;7483;50.498;12.138;2022-11-04T09:58:12;96205.00;;;9.60
14784;BMP180;7483;50.498;12.138;2022-11-04T10:00:51;96259.00;;;9.70
14784;BMP180;7483;50.498;12.138;2022-11-04T10:03:41;96265.00;;;9.70
14784;BMP180;7483;50.498;12.138;2022-11-04T10:06:29;96277.00;;;9.70
14784;BMP180;7483;50.498;12.138;2022-11-04T10:09:19;96286.00;;;9.80
14784;BMP180;7483;50.498;12.138;2022-11-04T10:12:01;96273.00;;;9.80
14784;BMP180;7483;50.498;12.138;2022-11-04T10:15:04;96269.00;;;9.70
14784;BMP180;7483;50.498;12.138;2022-11-04T10:17:55;96280.00;;;9.60
14784;BMP180;7483;50.498;12.138;2022-11-04T10:20:42;96268.00;;;9.70
14784;BMP180;7483;50.498;12.138;2022-11-04T10:23:21;96257.00;;;9.70
14784;BMP180;7483;50.498;12.138;2022-11-04T10:26:00;96278.00;;;9.80
14784;BMP180;7483;50.498;12.138;2022-11-04T10:28:39;96270.00;;;9.80
14784;BMP180;7483;50.498;12.138;2022-11-04T10:31:12;96276.00;;;9.70
14784;BMP180;7483;50.498;12.138;2022-11-04T10:33:49;96233.00;;;9.80
14784;BMP180;7483;50.498;12.138;2022-11-04T10:36:20;96256.00;;;9.90
14784;BMP180;7483;50.498;12.138;2022-11-04T10:38:51;96266.00;;;9.90
14784;BMP180;7483;50.498;12.138;2022-11-04T10:41:30;96270.00;;;9.90
14784;BMP180;7483;50.498;12.138;2022-11-04T10:44:04;96260.00;;;9.90
14784;BMP180;7483;50.498;12.138;2022-11-04T10:46:51;96256.00;;;9.90
14784;BMP180;7483;50.498;12.138;2022-11-04T10:50:18;96271.00;;;9.80
14784;BMP180;7483;50.498;12.138;2022-11-04T10:53:08;96260.00;;;9.70
14784;BMP180;7483;50.498;12.138;2022-11-04T10:55:49;96257.00;;;9.80
14784;BMP180;7483;50.498;12.138;2022-11-04T10:58:24;96248.00;;;9.90
14784;BMP180;7483;50.498;12.138;2022-11-04T11:00:54;96266.00;;;9.80
14784;BMP180;7483;50.498;12.138;2022-11-04T11:03:30;96269.00;;;9.80
14784;BMP180;7483;50.498;12.138;2022-11-04T11:06:20;96284.00;;;9.70
14784;BMP180;7483;50.498;12.138;2022-11-04T11:08:51;96276.00;;;9.70
14784;BMP180;7483;50.498;12.138;2022-11-04T11:11:37;96271.00;;;9.80
14784;BMP180;7483;50.498;12.138;2022-11-04T11:14:31;96283.00;;;9.80
14784;BMP180;7483;50.498;12.138;2022-11-04T11:17:23;96287.00;;;9.80
14784;BMP180;7483;50.498;12.138;2022-11-04T11:19:56;96258.00;;;9.80
14784;BMP180;7483;50.498;12.138;2022-11-04T11:22:35;96267.00;;;9.70
14784;BMP180;7483;50.498;12.138;2022-11-04T11:25:22;96275.00;;;9.70
14784;BMP180;7483;50.498;12.138;2022-11-04T11:27:54;96270.00;;;9.70
14784;BMP180;7483;50.498;12.138;2022-11-04T11:30:28;96317.00;;;9.80
14784;BMP180;7483;50.498;12.138;2022-11-04T11:33:02;96266.00;;;9.80
14784;BMP180;7483;50.498;12.138;2022-11-04T11:35:34;96271.00;;;9.80
14784;BMP180;7483;50.498;12.138;2022-11-04T11:38:18;96259.00;;;9.70
14784;BMP180;7483;50.498;12.138;2022-11-04T11:40:49;96209.00;;;9.80
14784;BMP180;7483;50.498;12.138;2022-11-04T11:43:48;96241.00;;;10.00
14784;BMP180;7483;50.498;12.138;2022-11-04T11:46:21;96252.00;;;10.00
14784;BMP180;7483;50.498;12.138;2022-11-04T11:48:52;96252.00;;;10.10
14784;BMP180;7483;50.498;12.138;2022-11-04T11:51:26;96262.00;;;10.20
14784;BMP180;7483;50.498;12.138;2022-11-04T11:54:15;96260.00;;;10.20
14784;BMP180;7483;50.498;12.138;2022-11-04T11:56:49;96268.00;;;10.20
14784;BMP180;7483;50.498;12.138;2022-11-04T11:59:45;96251.00;;;10.20
14784;BMP180;7483;50.498;12.138;2022-11-04T12:02:49;96249.00;;;10.20
14784;BMP180;7483;50.498;12.138;2022-11-04T12:05:26;96252.00;;;10.30
14784;BMP180;7483;50.498;12.138;2022-11-04T12:08:41;96265.00;;;10.20
14784;BMP180;7483;50.498;12.138;2022-11-04T12:11:47;96270.00;;;10.20
14784;BMP180;7483;50.498;12.138;2022-11-04T12:14:32;96215.00;;;10.10
14784;BMP180;7483;50.498;12.138;2022-11-04T12:17:21;96252.00;;;10.10
14784;BMP180;7483;50.498;12.138;2022-11-04T12:20:06;96204.00;;;10.10
14784;BMP180;7483;50.498;12.138;2022-11-04T12:22:51;96251.00;;;10.10
14784;BMP180;7483;50.498;12.138;2022-11-04T12:25:27;96245.00;;;10.10
14784;BMP180;7483;50.498;12.138;2022-11-04T12:28:14;96241.00;;;10.10
14784;BMP180;7483;50.498;12.138;2022-11-04T12:30:56;96248.00;;;10.20
14784;BMP180;7483;50.498;12.138;2022-11-04T12:33:38;96244.00;;;10.30
14784;BMP180;7483;50.498;12.138;2022-11-04T12:36:34;96247.00;;;10.30
14784;BMP180;7483;50.498;12.138;2022-11-04T12:39:33;96244.00;;;10.40
14784;BMP180;7483;50.498;12.138;2022-11-04T12:42:16;96255.00;;;10.40
14784;BMP180;7483;50.498;12.138;2022-11-04T12:45:06;96278.00;;;10.40
14784;BMP180;7483;50.498;12.138;2022-11-04T12:47:42;96255.00;;;10.40
14784;BMP180;7483;50.498;12.138;2022-11-04T12:50:27;96275.00;;;10.30
14784;BMP180;7483;50.498;12.138;2022-11-04T12:53:19;96245.00;;;10.20
14784;BMP180;7483;50.498;12.138;2022-11-04T12:56:00;96259.00;;;10.00
14784;BMP180;7483;50.498;12.138;2022-11-04T12:59:02;96240.00;;;10.20
14784;BMP180;7483;50.498;12.138;2022-11-04T13:01:44;96255.00;;;10.30
14784;BMP180;7483;50.498;12.138;2022-11-04T13:04:20;96264.00;;;10.20
14784;BMP180;7483;50.498;12.138;2022-11-04T13:06:53;96259.00;;;10.00
14784;BMP180;7483;50.498;12.138;2022-11-04T13:09:33;96254.00;;;10.00
14784;BMP180;7483;50.498;12.138;2022-11-04T13:12:09;96260.00;;;10.00
14784;BMP180;7483;50.498;12.138;2022-11-04T13:14:45;96260.00;;;9.90
14784;BMP180;7483;50.498;12.138;2022-11-04T13:17:25;96261.00;;;9.90
14784;BMP180;7483;50.498;12.138;2022-11-04T13:19:59;96279.00;;;9.90
14784;BMP180;7483;50.498;12.138;2022-11-04T13:22:31;96275.00;;;9.90
14784;BMP180;7483;50.498;12.138;2022-11-04T13:25:06;96280.00;;;9.90
14784;BMP180;7483;50.498;12.138;2022-11-04T13:27:44;96288.00;;;9.90
14784;BMP180;7483;50.498;12.138;2022-11-04T13:30:21;96290.00;;;9.80
14784;BMP180;7483;50.498;12.138;2022-11-04T13:33:00;96287.00;;;9.80
14784;BMP180;7483;50.498;12.138;2022-11-04T13:35:38;96286.00;;;9.70
14784;BMP180;7483;50.498;12.138;2022-11-04T13:38:11;96278.00;;;9.70
14784;BMP180;7483;50.498;12.138;2022-11-04T13:40:54;96282.00;;;9.70
14784;BMP180;7483;50.498;12.138;2022-11-04T13:43:33;96291.00;;;9.80
14784;BMP180;7483;50.498;12.138;2022-11-04T13:46:22;96294.00;;;9.80
14784;BMP180;7483;50.498;12.138;2022-11-04T13:49:02;96292.00;;;9.80
14784;BMP180;7483;50.498;12.138;2022-11-04T13:51:38;96285.00;;;9.80
14784;BMP180;7483;50.498;12.138;2022-11-04T13:54:27;96279.00;;;9.80
14784;BMP180;7483;50.498;12.138;2022-11-04T13:57:09;96279.00;;;9.90
14784;BMP180;7483;50.498;12.138;2022-11-04T13:59:42;96280.00;;;9.90
14784;BMP180;7483;50.498;12.138;2022-11-04T14:02:44;96284.00;;;9.90
14784;BMP180;7483;50.498;12.138;2022-11-04T14:06:04;96296.00;;;10.00
14784;BMP180;7483;50.498;12.138;2022-11-04T14:08:33;96300.00;;;10.00
14784;BMP180;7483;50.498;12.138;2022-11-04T14:11:11;96311.00;;;10.10
14784;BMP180;7483;50.498;12.138;2022-11-04T14:14:02;96313.00;;;10.10
14784;BMP180;7483;50.498;12.138;2022-11-04T14:16:40;96259.00;;;10.10
14784;BMP180;7483;50.498;12.138;2022-11-04T14:19:56;96313.00;;;10.10
14784;BMP180;7483;50.498;12.138;2022-11-04T14:22:45;96306.00;;;10.10
14784;BMP180;7483;50.498;12.138;2022-11-04T14:25:24;96297.00;;;9.90
14784;BMP180;7483;50.498;12.138;2022-11-04T14:27:55;96317.00;;;10.00
14784;BMP180;7483;50.498;12.138;2022-11-04T14:30:45;96315.00;;;9.90
14784;BMP180;7483;50.498;12.138;2022-11-04T14:33:33;96311.00;;;9.80
14784;BMP180;7483;50.498;12.138;2022-11-04T14:36:28;96312.00;;;9.80
14784;BMP180;7483;50.498;12.138;2022-11-04T14:39:05;96319.00;;;9.60
14784;BMP180;7483;50.498;12.138;2022-11-04T14:41:57;96320.00;;;9.80
14784;BMP180;7483;50.498;12.138;2022-11-04T14:44:33;96316.00;;;9.80
14784;BMP180;7483;50.498;12.138;2022-11-04T14:47:15;96332.00;;;9.90
14784;BMP180;7483;50.498;12.138;2022-11-04T14:49:47;96329.00;;;9.90
14784;BMP180;7483;50.498;12.138;2022-11-04T14:52:23;96326.00;;;9.90
14784;BMP180;7483;50.498;12.138;2022-11-04T14:55:01;96319.00;;;9.90
14784;BMP180;7483;50.498;12.138;2022-11-04T14:57:36;96318.00;;;9.90
14784;BMP180;7483;50.498;12.138;2022-11-04T15:00:29;96324.00;;;9.80
14784;BMP180;7483;50.498;12.138;2022-11-04T15:03:12;96328.00;;;9.80
14784;BMP180;7483;50.498;12.138;2022-11-04T15:06:04;96306.00;;;9.70
14784;BMP180;7483;50.498;12.138;2022-11-04T15:08:37;96317.00;;;9.70
14784;BMP180;7483;50.498;12.138;2022-11-04T15:11:15;96323.00;;;9.60